createdAt,value
2018-09-18T00:01:38.075Z,16.81
2018-09-18T00:04:07.558Z,16.80
2018-09-18T00:06:37.161Z,16.82
2018-09-18T00:09:09.083Z,16.75
2018-09-18T00:11:39.006Z,16.80
2018-09-18T00:14:08.949Z,16.80
2018-09-18T00:16:38.702Z,16.83
2018-09-18T00:19:08.061Z,16.93
2018-09-18T00:21:37.684Z,16.98
2018-09-18T00:24:07.625Z,16.92
2018-09-18T00:26:37.282Z,16.89
2018-09-18T00:29:06.969Z,16.82
2018-09-18T00:31:36.851Z,16.75
2018-09-18T00:34:06.330Z,16.73
2018-09-18T00:36:35.923Z,16.67
2018-09-18T00:39:07.318Z,16.68
2018-09-18T00:41:37.026Z,16.64
2018-09-18T00:44:06.694Z,16.59
2018-09-18T00:46:36.749Z,16.64
2018-09-18T00:49:06.626Z,16.55
2018-09-18T00:51:36.214Z,16.64
2018-09-18T00:54:05.983Z,16.64
2018-09-18T00:56:35.658Z,16.63
2018-09-18T00:59:05.238Z,16.56
2018-09-18T01:01:35.009Z,16.61
2018-09-18T01:04:04.603Z,16.58
2018-09-18T01:06:34.214Z,16.51
2018-09-18T01:09:04.338Z,16.49
2018-09-18T01:11:33.941Z,16.46
2018-09-18T01:14:03.639Z,16.48
2018-09-18T01:16:33.556Z,16.45
2018-09-18T01:19:03.034Z,16.44
2018-09-18T01:21:32.930Z,16.38
2018-09-18T01:24:02.714Z,16.36
2018-09-18T01:26:32.381Z,16.29
2018-09-18T01:29:01.899Z,16.17
2018-09-18T01:31:31.818Z,16.28
2018-09-18T01:34:01.252Z,16.21
2018-09-18T01:36:30.754Z,16.18
2018-09-18T01:39:00.750Z,16.24
2018-09-18T01:41:30.207Z,16.12
2018-09-18T01:43:59.675Z,16.09
2018-09-18T01:46:29.307Z,16.06
2018-09-18T01:48:58.826Z,16.14
2018-09-18T01:51:28.295Z,15.88
2018-09-18T01:53:58.133Z,15.81
2018-09-18T01:56:27.927Z,15.87
2018-09-18T01:58:57.388Z,15.90
2018-09-18T02:01:27.096Z,15.98
2018-09-18T02:03:56.583Z,15.92
2018-09-18T02:06:26.074Z,15.97
2018-09-18T02:08:55.763Z,15.79
2018-09-18T02:11:25.263Z,15.72
2018-09-18T02:13:54.889Z,15.69
2018-09-18T02:16:24.661Z,15.66
2018-09-18T02:18:54.219Z,15.66
2018-09-18T02:21:23.944Z,15.76
2018-09-18T02:23:53.618Z,15.65
2018-09-18T02:26:22.999Z,15.65
2018-09-18T02:28:52.701Z,15.67
2018-09-18T02:31:22.421Z,15.59
2018-09-18T02:33:52.150Z,15.59
2018-09-18T02:36:21.858Z,15.52
2018-09-18T02:38:51.823Z,15.49
2018-09-18T02:41:21.469Z,15.45
2018-09-18T02:43:50.986Z,15.47
2018-09-18T02:46:20.989Z,15.53
2018-09-18T02:48:50.502Z,15.54
2018-09-18T02:51:20.127Z,15.49
2018-09-18T02:53:50.163Z,15.49
2018-09-18T02:56:19.859Z,15.55
2018-09-18T02:58:49.459Z,15.49
2018-09-18T03:01:19.475Z,15.51
2018-09-18T03:03:48.768Z,15.44
2018-09-18T03:06:18.192Z,15.40
2018-09-18T03:08:47.730Z,15.39
2018-09-18T03:11:17.541Z,15.32
2018-09-18T03:13:47.359Z,15.29
2018-09-18T03:16:17.157Z,15.31
2018-09-18T03:18:46.616Z,15.35
2018-09-18T03:21:16.654Z,15.30
2018-09-18T03:23:46.241Z,15.29
2018-09-18T03:26:16.104Z,15.38
2018-09-18T03:28:46.106Z,15.34
2018-09-18T03:31:15.910Z,15.25
2018-09-18T03:33:45.263Z,15.33
2018-09-18T03:36:14.916Z,15.25
2018-09-18T03:38:44.862Z,15.30
2018-09-18T03:41:14.634Z,15.24
2018-09-18T03:43:44.459Z,15.22
2018-09-18T03:46:14.707Z,15.22
2018-09-18T03:48:44.485Z,15.14
2018-09-18T03:51:13.995Z,15.09
2018-09-18T03:53:43.491Z,15.09
2018-09-18T03:56:12.927Z,14.53
2018-09-18T03:58:42.391Z,14.98
2018-09-18T04:01:12.059Z,14.98
2018-09-18T04:03:41.975Z,15.07
2018-09-18T04:06:11.548Z,15.14
2018-09-18T04:08:41.390Z,15.09
2018-09-18T04:11:10.877Z,14.99
2018-09-18T04:13:40.275Z,14.97
2018-09-18T04:16:10.480Z,15.00
2018-09-18T04:18:40.086Z,15.00
2018-09-18T04:21:09.821Z,14.86
2018-09-18T04:23:39.405Z,15.00
2018-09-18T04:26:08.820Z,15.08
2018-09-18T04:28:38.420Z,15.05
2018-09-18T04:31:08.522Z,15.01
2018-09-18T04:33:37.953Z,14.89
2018-09-18T04:36:07.335Z,14.91
2018-09-18T04:38:36.801Z,14.86
2018-09-18T04:41:06.773Z,14.91
2018-09-18T04:43:36.386Z,14.88
2018-09-18T04:46:06.396Z,14.94
2018-09-18T04:48:37.254Z,15.02
2018-09-18T04:51:07.108Z,15.04
2018-09-18T04:53:36.665Z,15.06
2018-09-18T04:56:06.486Z,15.10
2018-09-18T04:58:36.083Z,15.06
2018-09-18T05:01:05.784Z,15.15
2018-09-18T05:03:35.363Z,15.25
2018-09-18T05:06:05.209Z,15.24
2018-09-18T05:08:34.851Z,15.19
2018-09-18T05:11:04.469Z,15.20
2018-09-18T05:13:34.341Z,15.28
2018-09-18T05:16:04.059Z,15.30
2018-09-18T05:18:33.681Z,15.37
2018-09-18T05:21:03.347Z,15.36
2018-09-18T05:23:32.842Z,14.95
2018-09-18T05:26:02.601Z,15.55
2018-09-18T05:28:32.330Z,15.47
2018-09-18T05:31:01.701Z,15.54
2018-09-18T05:33:33.857Z,15.53
2018-09-18T05:36:03.803Z,15.62
2018-09-18T05:38:33.427Z,15.63
2018-09-18T05:41:03.058Z,15.65
2018-09-18T05:43:32.639Z,15.65
2018-09-18T05:46:02.121Z,15.78
2018-09-18T05:48:33.818Z,15.81
2018-09-18T05:51:03.604Z,15.91
2018-09-18T05:53:33.108Z,15.96
2018-09-18T05:56:02.991Z,15.97
2018-09-18T05:58:32.319Z,15.98
2018-09-18T06:01:02.118Z,16.13
2018-09-18T06:03:31.479Z,16.19
2018-09-18T06:06:01.041Z,16.29
2018-09-18T06:08:30.414Z,16.39
2018-09-18T06:11:00.575Z,16.49
2018-09-18T06:13:29.911Z,16.55
2018-09-18T06:15:59.677Z,16.70
2018-09-18T06:18:29.305Z,16.79
2018-09-18T06:20:58.901Z,16.84
2018-09-18T06:23:28.350Z,17.05
2018-09-18T06:25:58.141Z,17.05
2018-09-18T06:28:27.567Z,16.99
2018-09-18T06:30:57.126Z,17.10
2018-09-18T06:33:27.274Z,17.12
2018-09-18T06:35:57.055Z,17.37
2018-09-18T06:38:26.473Z,17.48
2018-09-18T06:40:56.158Z,17.66
2018-09-18T06:43:25.784Z,17.54
2018-09-18T06:45:55.685Z,17.54
2018-09-18T06:48:25.445Z,17.28
2018-09-18T06:50:55.123Z,17.23
2018-09-18T06:53:24.621Z,17.22
2018-09-18T06:55:54.202Z,17.17
2018-09-18T06:58:23.525Z,17.24
2018-09-18T07:00:53.222Z,17.41
2018-09-18T07:03:22.879Z,17.62
2018-09-18T07:05:52.445Z,17.83
2018-09-18T07:08:22.233Z,17.86
2018-09-18T07:10:51.906Z,17.98
2018-09-18T07:13:21.373Z,18.00
2018-09-18T07:15:51.160Z,18.11
2018-09-18T07:18:21.422Z,18.04
2018-09-18T07:20:51.377Z,17.84
2018-09-18T07:23:21.132Z,18.19
2018-09-18T07:25:51.086Z,18.37
2018-09-18T07:28:20.568Z,18.54
2018-09-18T07:30:50.069Z,18.55
2018-09-18T07:33:19.910Z,18.76
2018-09-18T07:35:49.483Z,18.70
2018-09-18T07:38:18.741Z,18.90
2018-09-18T07:40:48.762Z,18.90
2018-09-18T07:43:18.273Z,19.00
2018-09-18T07:45:48.001Z,19.09
2018-09-18T07:48:18.077Z,19.13
2018-09-18T07:50:47.591Z,19.27
2018-09-18T07:53:17.075Z,19.21
2018-09-18T07:55:46.824Z,19.36
2018-09-18T07:58:18.008Z,19.40
2018-09-18T08:00:47.552Z,19.56
2018-09-18T08:03:18.282Z,19.79
2018-09-18T08:05:47.987Z,19.79
2018-09-18T08:08:17.910Z,19.67
2018-09-18T08:10:47.331Z,19.76
2018-09-18T08:13:16.903Z,19.84
2018-09-18T08:15:46.634Z,19.80
2018-09-18T08:18:16.034Z,19.93
2018-09-18T08:20:45.413Z,19.94
2018-09-18T08:23:15.099Z,20.02
2018-09-18T08:25:44.804Z,20.26
2018-09-18T08:28:14.343Z,20.16
2018-09-18T08:30:43.873Z,20.36
2018-09-18T08:33:13.697Z,20.69
2018-09-18T08:35:43.377Z,20.75
2018-09-18T08:38:13.052Z,20.99
2018-09-18T08:40:42.499Z,20.95
2018-09-18T08:43:12.078Z,20.83
2018-09-18T08:45:42.246Z,20.72
2018-09-18T08:48:12.029Z,20.83
2018-09-18T08:50:41.797Z,20.83
2018-09-18T08:53:12.140Z,21.22
2018-09-18T08:55:41.795Z,21.21
2018-09-18T08:58:11.401Z,21.29
2018-09-18T09:00:40.982Z,21.34
2018-09-18T09:03:10.690Z,21.63
2018-09-18T09:05:40.224Z,21.50
2018-09-18T09:08:10.000Z,21.56
2018-09-18T09:10:39.607Z,22.00
2018-09-18T09:13:09.094Z,22.17
2018-09-18T09:15:39.200Z,22.35
2018-09-18T09:18:08.830Z,22.35
2018-09-18T09:20:38.670Z,22.55
2018-09-18T09:23:08.739Z,22.88
2018-09-18T09:25:38.248Z,23.03
2018-09-18T09:28:07.718Z,23.26
2018-09-18T09:30:37.803Z,23.25
2018-09-18T09:33:07.362Z,23.26
2018-09-18T09:35:36.752Z,23.26
2018-09-18T09:38:06.905Z,23.40
2018-09-18T09:40:36.676Z,23.45
2018-09-18T09:43:06.492Z,23.69
2018-09-18T09:45:36.786Z,23.62
2018-09-18T09:48:06.547Z,23.83
2018-09-18T09:50:36.034Z,23.93
2018-09-18T09:53:06.125Z,24.30
2018-09-18T09:55:35.753Z,24.74
2018-09-18T09:58:05.554Z,24.53
2018-09-18T10:00:41.387Z,24.29
2018-09-18T10:03:10.724Z,24.11
2018-09-18T10:05:40.192Z,24.40
2018-09-18T10:08:09.865Z,24.47
2018-09-18T10:10:39.286Z,24.24
2018-09-18T10:13:08.653Z,24.67
2018-09-18T10:15:38.309Z,24.77
2018-09-18T10:18:07.855Z,25.17
2018-09-18T10:20:37.380Z,25.33
2018-09-18T10:23:07.216Z,25.14
2018-09-18T10:25:36.828Z,25.32
2018-09-18T10:28:06.487Z,25.64
2018-09-18T10:30:36.320Z,25.74
2018-09-18T10:33:06.027Z,25.75
2018-09-18T10:35:35.484Z,25.87
2018-09-18T10:38:05.264Z,25.45
2018-09-18T10:40:34.876Z,25.96
2018-09-18T10:43:04.346Z,26.15
2018-09-18T10:45:33.982Z,26.33
2018-09-18T10:48:03.379Z,26.27
2018-09-18T10:50:32.893Z,26.30
2018-09-18T10:53:02.317Z,26.14
2018-09-18T10:55:31.943Z,26.33
2018-09-18T10:58:01.511Z,26.67
2018-09-18T11:00:31.344Z,26.69
2018-09-18T11:03:01.050Z,27.28
2018-09-18T11:05:30.544Z,27.45
2018-09-18T11:08:00.269Z,27.83
2018-09-18T11:10:29.785Z,27.83
2018-09-18T11:12:59.535Z,27.81
2018-09-18T11:15:28.922Z,27.87
2018-09-18T11:18:01.187Z,27.97
2018-09-18T11:20:30.589Z,28.04
2018-09-18T11:23:00.455Z,27.96
2018-09-18T11:25:29.718Z,27.88
2018-09-18T11:27:59.525Z,28.40
2018-09-18T11:30:28.983Z,28.45
2018-09-18T11:32:58.665Z,28.70
2018-09-18T11:35:28.419Z,28.86
2018-09-18T11:37:57.983Z,28.29
2018-09-18T11:40:27.736Z,28.71
2018-09-18T11:42:57.766Z,28.85
2018-09-18T11:45:27.541Z,28.69
2018-09-18T11:47:57.090Z,28.69
2018-09-18T11:50:27.004Z,28.25
2018-09-18T11:52:56.518Z,28.70
2018-09-18T11:55:25.917Z,28.81
2018-09-18T11:57:55.608Z,28.95
2018-09-18T12:00:25.109Z,28.88
2018-09-18T12:02:54.929Z,29.22
2018-09-18T12:05:25.032Z,28.42
2018-09-18T12:07:54.442Z,28.76
2018-09-18T12:10:24.055Z,29.28
2018-09-18T12:12:53.715Z,29.44
2018-09-18T12:15:23.152Z,29.80
2018-09-18T12:17:52.878Z,30.00
2018-09-18T12:20:22.595Z,29.70
2018-09-18T12:22:52.520Z,29.53
2018-09-18T12:25:22.038Z,29.47
2018-09-18T12:27:51.936Z,29.53
2018-09-18T12:30:21.725Z,29.54
2018-09-18T12:32:51.691Z,29.77
2018-09-18T12:35:22.124Z,29.71
2018-09-18T12:37:51.988Z,29.11
2018-09-18T12:40:21.595Z,29.13
2018-09-18T12:42:51.524Z,29.79
2018-09-18T12:45:21.215Z,30.08
2018-09-18T12:47:50.876Z,29.64
2018-09-18T12:50:20.627Z,30.27
2018-09-18T12:52:50.370Z,30.24
2018-09-18T12:55:19.907Z,30.37
2018-09-18T12:57:49.691Z,30.05
2018-09-18T13:00:19.100Z,30.27
2018-09-18T13:02:48.738Z,30.23
2018-09-18T13:05:18.177Z,30.21
2018-09-18T13:07:47.952Z,30.24
2018-09-18T13:10:17.709Z,30.25
2018-09-18T13:12:47.670Z,30.56
2018-09-18T13:15:17.050Z,30.45
2018-09-18T13:17:46.667Z,30.72
2018-09-18T13:20:16.681Z,30.42
2018-09-18T13:22:46.029Z,30.46
2018-09-18T13:25:15.571Z,30.42
2018-09-18T13:27:45.252Z,30.88
2018-09-18T13:30:14.731Z,31.39
2018-09-18T13:32:44.508Z,31.20
2018-09-18T13:35:14.125Z,31.28
2018-09-18T13:37:43.618Z,31.24
2018-09-18T13:40:13.172Z,31.40
2018-09-18T13:42:42.615Z,31.41
2018-09-18T13:45:12.517Z,31.51
2018-09-18T13:47:42.022Z,31.80
2018-09-18T13:50:11.956Z,32.14
2018-09-18T13:52:41.573Z,31.53
2018-09-18T13:55:11.403Z,31.79
2018-09-18T14:00:13.895Z,31.70
2018-09-18T14:02:43.292Z,31.71
2018-09-18T14:05:12.830Z,31.79
2018-09-18T14:07:42.754Z,31.96
2018-09-18T14:10:14.128Z,32.15
2018-09-18T14:12:43.590Z,32.27
2018-09-18T14:15:13.239Z,32.08
2018-09-18T14:17:42.681Z,31.68
2018-09-18T14:20:12.205Z,32.40
2018-09-18T14:22:41.508Z,32.13
2018-09-18T14:25:11.147Z,32.05
2018-09-18T14:27:41.169Z,32.51
2018-09-18T14:30:11.160Z,32.03
2018-09-18T14:32:40.711Z,32.01
2018-09-18T14:35:10.827Z,32.32
2018-09-18T14:37:40.579Z,32.44
2018-09-18T14:40:10.162Z,32.02
2018-09-18T14:42:40.068Z,31.71
2018-09-18T14:45:09.500Z,32.03
2018-09-18T14:47:38.902Z,31.86
2018-09-18T14:50:08.714Z,31.60
2018-09-18T14:52:38.167Z,31.09
2018-09-18T14:55:08.024Z,30.88
2018-09-18T14:57:37.758Z,30.74
2018-09-18T15:00:07.396Z,30.82
2018-09-18T15:02:36.853Z,30.76
2018-09-18T15:05:06.707Z,30.67
2018-09-18T15:07:36.470Z,30.50
2018-09-18T15:10:06.286Z,30.12
2018-09-18T15:12:36.420Z,30.17
2018-09-18T15:15:06.278Z,29.94
2018-09-18T15:17:35.634Z,29.59
2018-09-18T15:20:05.578Z,29.60
2018-09-18T15:22:35.160Z,29.33
2018-09-18T15:25:04.457Z,29.30
2018-09-18T15:27:33.772Z,28.96
2018-09-18T15:30:03.679Z,28.49
2018-09-18T15:32:33.387Z,28.51
2018-09-18T15:35:02.833Z,28.43
2018-09-18T15:37:32.296Z,28.31
2018-09-18T15:40:01.883Z,28.02
2018-09-18T15:42:31.607Z,27.74
2018-09-18T15:45:01.027Z,27.59
2018-09-18T15:47:30.600Z,27.15
2018-09-18T15:50:00.673Z,27.11
2018-09-18T15:52:30.161Z,26.90
2018-09-18T15:55:00.142Z,26.79
2018-09-18T15:57:29.821Z,26.98
2018-09-18T16:00:00.730Z,27.00
2018-09-18T16:02:30.238Z,27.00
2018-09-18T16:04:59.991Z,26.94
2018-09-18T16:07:29.436Z,26.76
2018-09-18T16:09:59.478Z,26.59
2018-09-18T16:12:28.925Z,26.44
2018-09-18T16:14:58.492Z,26.44
2018-09-18T16:17:28.349Z,26.35
2018-09-18T16:19:58.088Z,26.08
2018-09-18T16:22:27.718Z,26.05
2018-09-18T16:24:57.349Z,25.89
2018-09-18T16:27:27.274Z,25.79
2018-09-18T16:29:57.137Z,25.61
2018-09-18T16:32:27.136Z,25.54
2018-09-18T16:34:56.659Z,25.42
2018-09-18T16:37:26.083Z,25.48
2018-09-18T16:39:55.801Z,25.34
2018-09-18T16:42:25.529Z,25.27
2018-09-18T16:44:55.085Z,25.28
2018-09-18T16:47:24.730Z,25.01
2018-09-18T16:49:54.255Z,24.99
2018-09-18T16:52:24.118Z,24.84
2018-09-18T16:54:54.094Z,24.74
2018-09-18T16:59:51.631Z,24.39
2018-09-18T17:02:21.493Z,24.19
2018-09-18T17:04:50.896Z,23.86
2018-09-18T17:07:20.359Z,23.99
2018-09-18T17:09:49.990Z,23.83
2018-09-18T17:12:19.759Z,23.85
2018-09-18T17:14:49.544Z,23.79
2018-09-18T17:17:19.324Z,23.71
2018-09-18T17:19:48.888Z,23.59
2018-09-18T17:22:18.523Z,23.52
2018-09-18T17:24:47.628Z,23.62
2018-09-18T17:27:22.697Z,23.57
2018-09-18T17:29:58.006Z,23.35
2018-09-18T17:32:27.179Z,23.36
2018-09-18T17:34:56.179Z,23.40
2018-09-18T17:37:25.538Z,23.30
2018-09-18T17:39:54.423Z,23.34
2018-09-18T17:42:23.437Z,23.37
2018-09-18T17:44:59.599Z,23.42
2018-09-18T17:47:35.006Z,23.49
2018-09-18T17:50:04.221Z,23.35
2018-09-18T17:52:33.052Z,23.06
2018-09-18T17:55:02.070Z,22.92
2018-09-18T17:57:31.513Z,22.75
2018-09-18T18:00:00.920Z,22.72
2018-09-18T18:02:30.584Z,22.61
2018-09-18T18:05:00.645Z,22.44
2018-09-18T18:07:30.350Z,22.23
2018-09-18T18:09:59.733Z,22.32
2018-09-18T18:12:29.557Z,22.23
2018-09-18T18:14:59.138Z,22.26
2018-09-18T18:17:28.678Z,22.16
2018-09-18T18:19:58.569Z,22.23
2018-09-18T18:22:28.001Z,22.08
2018-09-18T18:24:57.746Z,22.15
2018-09-18T18:27:27.484Z,22.07
2018-09-18T18:29:56.999Z,21.94
2018-09-18T18:32:26.407Z,21.75
2018-09-18T18:34:56.147Z,21.50
2018-09-18T18:37:25.511Z,21.36
2018-09-18T18:39:55.034Z,21.26
2018-09-18T18:42:24.875Z,21.31
2018-09-18T18:44:54.455Z,21.30
2018-09-18T18:47:23.952Z,21.14
2018-09-18T18:49:53.528Z,21.25
2018-09-18T18:52:23.280Z,21.21
2018-09-18T18:54:52.858Z,20.93
2018-09-18T18:57:22.887Z,20.93
2018-09-18T18:59:52.543Z,21.03
2018-09-18T19:02:22.375Z,20.93
2018-09-18T19:04:52.245Z,20.73
2018-09-18T19:07:22.199Z,20.73
2018-09-18T19:09:51.637Z,20.68
2018-09-18T19:12:21.886Z,20.66
2018-09-18T19:14:51.722Z,20.58
2018-09-18T19:17:21.350Z,20.60
2018-09-18T19:19:51.361Z,20.41
2018-09-18T19:22:21.115Z,20.56
2018-09-18T19:24:51.091Z,20.62
2018-09-18T19:27:20.995Z,20.55
2018-09-18T19:29:50.635Z,20.57
2018-09-18T19:32:20.420Z,20.39
2018-09-18T19:34:50.583Z,20.48
2018-09-18T19:37:20.149Z,20.48
2018-09-18T19:39:49.849Z,20.56
2018-09-18T19:42:20.104Z,20.51
2018-09-18T19:44:49.711Z,20.39
2018-09-18T19:47:19.479Z,20.29
2018-09-18T19:49:49.294Z,20.26
2018-09-18T19:52:18.849Z,20.33
2018-09-18T19:54:48.515Z,20.36
2018-09-18T19:57:18.140Z,20.29
2018-09-18T19:59:47.849Z,20.26
2018-09-18T20:02:17.300Z,20.21
2018-09-18T20:04:47.372Z,20.18
2018-09-18T20:07:17.411Z,20.12
2018-09-18T20:09:47.087Z,19.98
2018-09-18T20:12:16.983Z,19.91
2018-09-18T20:14:46.873Z,19.93
2018-09-18T20:17:16.248Z,19.85
2018-09-18T20:19:45.948Z,19.73
2018-09-18T20:22:15.780Z,19.68
2018-09-18T20:24:45.357Z,19.63
2018-09-18T20:27:14.929Z,19.74
2018-09-18T20:29:44.746Z,19.70
2018-09-18T20:32:14.333Z,19.53
2018-09-18T20:34:44.670Z,19.49
2018-09-18T20:37:14.396Z,19.43
2018-09-18T20:39:44.892Z,19.35
2018-09-18T20:42:14.860Z,19.40
2018-09-18T20:44:44.389Z,19.24
2018-09-18T20:47:14.060Z,19.13
2018-09-18T20:49:44.019Z,19.02
2018-09-18T20:52:13.460Z,18.92
2018-09-18T20:54:43.415Z,18.97
2018-09-18T20:57:13.559Z,18.86
2018-09-18T20:59:43.117Z,19.08
2018-09-18T21:02:13.135Z,19.03
2018-09-18T21:04:43.292Z,18.87
2018-09-18T21:07:13.256Z,18.70
2018-09-18T21:09:43.091Z,18.73
2018-09-18T21:12:12.961Z,18.75
2018-09-18T21:14:42.396Z,18.80
2018-09-18T21:17:12.177Z,18.73
2018-09-18T21:19:42.346Z,18.53
2018-09-18T21:22:12.399Z,18.53
2018-09-18T21:24:42.267Z,18.44
2018-09-18T21:27:12.602Z,18.43
2018-09-18T21:29:42.301Z,18.48
2018-09-18T21:32:11.821Z,18.36
2018-09-18T21:34:41.668Z,18.13
2018-09-18T21:37:11.649Z,18.17
2018-09-18T21:39:41.554Z,18.10
2018-09-18T21:42:11.509Z,18.05
2018-09-18T21:44:41.429Z,18.15
2018-09-18T21:47:11.041Z,17.87
2018-09-18T21:49:41.386Z,17.84
2018-09-18T21:52:11.069Z,17.83
2018-09-18T21:54:40.854Z,17.89
2018-09-18T21:57:10.455Z,18.01
2018-09-18T21:59:40.016Z,17.87
2018-09-18T22:02:09.412Z,17.81
2018-09-18T22:04:39.116Z,17.87
2018-09-18T22:07:08.778Z,17.72
2018-09-18T22:09:38.342Z,17.74
2018-09-18T22:12:09.159Z,17.70
2018-09-18T22:14:39.042Z,17.73
2018-09-18T22:17:08.337Z,17.68
2018-09-18T22:19:38.144Z,17.29
2018-09-18T22:22:07.856Z,17.31
2018-09-18T22:24:37.641Z,17.31
2018-09-18T22:27:07.632Z,17.14
2018-09-18T22:29:37.444Z,17.11
2018-09-18T22:32:07.125Z,17.12
2018-09-18T22:34:36.901Z,17.19
2018-09-18T22:37:06.434Z,17.07
2018-09-18T22:39:35.861Z,16.82
2018-09-18T22:42:05.632Z,16.88
2018-09-18T22:44:37.724Z,16.90
2018-09-18T22:47:07.475Z,16.76
2018-09-18T22:49:38.079Z,16.63
2018-09-18T22:52:07.645Z,16.69
2018-09-18T22:54:37.444Z,16.69
2018-09-18T22:57:06.911Z,16.82
2018-09-18T22:59:36.399Z,16.82
2018-09-18T23:02:06.474Z,16.71
2018-09-18T23:04:36.052Z,16.70
2018-09-18T23:07:05.693Z,16.76
2018-09-18T23:09:35.788Z,16.70
2018-09-18T23:12:05.235Z,16.72
2018-09-18T23:14:34.604Z,16.59
2018-09-18T23:17:04.585Z,16.57
2018-09-18T23:19:34.106Z,16.53
2018-09-18T23:22:03.805Z,16.52
2018-09-18T23:24:33.923Z,16.49
2018-09-18T23:27:03.535Z,16.40
2018-09-18T23:29:33.148Z,16.44
2018-09-18T23:32:03.188Z,16.47
2018-09-18T23:34:32.567Z,16.41
2018-09-18T23:37:02.483Z,16.36
2018-09-18T23:39:32.118Z,16.42
2018-09-18T23:42:01.623Z,16.20
2018-09-18T23:44:31.002Z,16.31
2018-09-18T23:47:01.157Z,16.24
2018-09-18T23:49:30.517Z,16.19
2018-09-18T23:52:00.042Z,16.16
2018-09-18T23:54:29.899Z,16.12
2018-09-18T23:56:59.549Z,16.13
2018-09-18T23:59:29.075Z,16.18
